Grindstone City, Michigan
Current Conditions -  °F | °C
As of 12:19 PM on Thursday 23 Oct 2014 (Local Time) from KBAX Reporting Station
Overcast Overcast  
Wind Chill: 42°   Ceiling: 1200
Heat Index: 45°   Visibility: 10mi
Dew Point: 45°   Wind: 5mph
Humidity: 100%   Direction: 230°SW
Pressure: 30.24"   Gusts: NA
Location:  44.0077°N, 82.9857°W
Report Text: KBAX 231619Z AUTO 23004KT 10SM OVC012 07/07 A3024 RMK AO2 T00700070
Loading
Personal Weather Stations






























Interactive Weather Map
Tropical Storm Tracking
New forecast layout! Learn more

10-Day Weather Forecast

Advertisements
Track Severe Weather on mobile